sensor_id;sensor_type;location;lat;lon;timestamp;P1;durP1;ratioP1;P2;durP2;ratioP2
69401;SDS011;56589;51.992;5.924;2023-07-13T00:01:53;5.57;;;1.75;;
69401;SDS011;56589;51.992;5.924;2023-07-13T00:04:20;5.70;;;1.80;;
69401;SDS011;56589;51.992;5.924;2023-07-13T00:06:48;7.20;;;1.80;;
69401;SDS011;56589;51.992;5.924;2023-07-13T00:09:15;6.63;;;1.67;;
69401;SDS011;56589;51.992;5.924;2023-07-13T00:11:43;5.47;;;1.75;;
69401;SDS011;56589;51.992;5.924;2023-07-13T00:14:17;6.20;;;1.42;;
69401;SDS011;56589;51.992;5.924;2023-07-13T00:16:44;9.60;;;1.52;;
69401;SDS011;56589;51.992;5.924;2023-07-13T00:19:11;6.43;;;1.55;;
69401;SDS011;56589;51.992;5.924;2023-07-13T00:21:38;6.82;;;1.70;;
69401;SDS011;56589;51.992;5.924;2023-07-13T00:24:05;5.40;;;1.70;;
69401;SDS011;56589;51.992;5.924;2023-07-13T00:26:32;9.50;;;1.30;;
69401;SDS011;56589;51.992;5.924;2023-07-13T00:28:58;3.75;;;1.42;;
69401;SDS011;56589;51.992;5.924;2023-07-13T00:31:27;6.25;;;1.20;;
69401;SDS011;56589;51.992;5.924;2023-07-13T00:33:53;9.43;;;1.35;;
69401;SDS011;56589;51.992;5.924;2023-07-13T00:36:20;10.90;;;1.85;;
69401;SDS011;56589;51.992;5.924;2023-07-13T00:38:46;4.15;;;1.25;;
69401;SDS011;56589;51.992;5.924;2023-07-13T00:41:13;10.18;;;1.83;;
69401;SDS011;56589;51.992;5.924;2023-07-13T00:43:39;7.70;;;1.50;;
69401;SDS011;56589;51.992;5.924;2023-07-13T00:46:17;4.45;;;1.30;;
69401;SDS011;56589;51.992;5.924;2023-07-13T00:48:53;7.60;;;1.42;;
69401;SDS011;56589;51.992;5.924;2023-07-13T00:51:26;3.92;;;1.23;;
69401;SDS011;56589;51.992;5.924;2023-07-13T00:53:58;8.13;;;1.42;;
69401;SDS011;56589;51.992;5.924;2023-07-13T00:56:29;6.72;;;2.03;;
69401;SDS011;56589;51.992;5.924;2023-07-13T00:58:58;5.70;;;1.42;;
69401;SDS011;56589;51.992;5.924;2023-07-13T01:01:27;5.63;;;1.45;;
69401;SDS011;56589;51.992;5.924;2023-07-13T01:03:57;6.97;;;1.50;;
69401;SDS011;56589;51.992;5.924;2023-07-13T01:06:23;5.43;;;1.50;;
69401;SDS011;56589;51.992;5.924;2023-07-13T01:08:49;11.88;;;1.52;;
69401;SDS011;56589;51.992;5.924;2023-07-13T01:11:18;6.38;;;1.40;;
69401;SDS011;56589;51.992;5.924;2023-07-13T01:13:46;6.43;;;1.40;;
69401;SDS011;56589;51.992;5.924;2023-07-13T01:16:13;6.13;;;1.52;;
69401;SDS011;56589;51.992;5.924;2023-07-13T01:18:49;6.05;;;1.42;;
69401;SDS011;56589;51.992;5.924;2023-07-13T01:21:18;4.43;;;1.65;;
69401;SDS011;56589;51.992;5.924;2023-07-13T01:23:44;7.18;;;1.67;;
69401;SDS011;56589;51.992;5.924;2023-07-13T01:26:10;7.22;;;1.45;;
69401;SDS011;56589;51.992;5.924;2023-07-13T01:28:37;4.88;;;1.58;;
69401;SDS011;56589;51.992;5.924;2023-07-13T01:31:03;5.93;;;1.75;;
69401;SDS011;56589;51.992;5.924;2023-07-13T01:33:30;6.63;;;1.63;;
69401;SDS011;56589;51.992;5.924;2023-07-13T01:35:56;6.72;;;1.33;;
69401;SDS011;56589;51.992;5.924;2023-07-13T01:38:25;6.63;;;1.70;;
69401;SDS011;56589;51.992;5.924;2023-07-13T01:40:51;4.82;;;1.35;;
69401;SDS011;56589;51.992;5.924;2023-07-13T01:43:18;5.85;;;1.60;;
69401;SDS011;56589;51.992;5.924;2023-07-13T01:45:45;4.85;;;1.00;;
69401;SDS011;56589;51.992;5.924;2023-07-13T01:48:11;2.97;;;1.15;;
69401;SDS011;56589;51.992;5.924;2023-07-13T01:50:38;5.10;;;1.35;;
69401;SDS011;56589;51.992;5.924;2023-07-13T01:53:04;7.88;;;1.60;;
69401;SDS011;56589;51.992;5.924;2023-07-13T01:55:34;6.90;;;1.60;;
69401;SDS011;56589;51.992;5.924;2023-07-13T01:58:01;6.63;;;1.52;;
69401;SDS011;56589;51.992;5.924;2023-07-13T02:00:27;7.97;;;2.05;;
69401;SDS011;56589;51.992;5.924;2023-07-13T02:02:53;7.30;;;1.55;;
69401;SDS011;56589;51.992;5.924;2023-07-13T02:05:19;6.97;;;1.80;;
69401;SDS011;56589;51.992;5.924;2023-07-13T02:07:45;8.27;;;2.05;;
69401;SDS011;56589;51.992;5.924;2023-07-13T02:10:11;8.52;;;1.60;;
69401;SDS011;56589;51.992;5.924;2023-07-13T02:12:40;3.95;;;1.70;;
69401;SDS011;56589;51.992;5.924;2023-07-13T02:15:08;5.10;;;2.22;;
69401;SDS011;56589;51.992;5.924;2023-07-13T02:17:35;7.82;;;1.80;;
69401;SDS011;56589;51.992;5.924;2023-07-13T02:20:02;8.02;;;1.70;;
69401;SDS011;56589;51.992;5.924;2023-07-13T02:22:31;8.43;;;1.65;;
69401;SDS011;56589;51.992;5.924;2023-07-13T02:24:58;8.75;;;1.60;;
69401;SDS011;56589;51.992;5.924;2023-07-13T02:27:24;5.13;;;1.40;;
69401;SDS011;56589;51.992;5.924;2023-07-13T02:29:53;7.22;;;1.50;;
69401;SDS011;56589;51.992;5.924;2023-07-13T02:32:19;9.23;;;2.20;;
69401;SDS011;56589;51.992;5.924;2023-07-13T02:34:45;6.75;;;2.30;;
69401;SDS011;56589;51.992;5.924;2023-07-13T02:37:11;8.57;;;2.15;;
69401;SDS011;56589;51.992;5.924;2023-07-13T02:39:37;7.35;;;1.48;;
69401;SDS011;56589;51.992;5.924;2023-07-13T02:42:03;10.60;;;2.45;;
69401;SDS011;56589;51.992;5.924;2023-07-13T02:44:31;13.30;;;2.40;;
69401;SDS011;56589;51.992;5.924;2023-07-13T02:46:59;10.15;;;2.42;;
69401;SDS011;56589;51.992;5.924;2023-07-13T02:49:25;8.98;;;2.70;;
69401;SDS011;56589;51.992;5.924;2023-07-13T02:51:52;8.57;;;1.95;;
69401;SDS011;56589;51.992;5.924;2023-07-13T02:54:18;7.40;;;2.15;;
69401;SDS011;56589;51.992;5.924;2023-07-13T02:56:44;8.35;;;2.20;;
69401;SDS011;56589;51.992;5.924;2023-07-13T02:59:10;6.13;;;2.35;;
69401;SDS011;56589;51.992;5.924;2023-07-13T03:01:36;11.48;;;2.13;;
69401;SDS011;56589;51.992;5.924;2023-07-13T03:04:05;7.90;;;2.58;;
69401;SDS011;56589;51.992;5.924;2023-07-13T03:06:31;6.93;;;1.85;;
69401;SDS011;56589;51.992;5.924;2023-07-13T03:08:58;8.82;;;2.30;;
69401;SDS011;56589;51.992;5.924;2023-07-13T03:11:24;10.18;;;2.10;;
69401;SDS011;56589;51.992;5.924;2023-07-13T03:13:51;6.03;;;2.00;;
69401;SDS011;56589;51.992;5.924;2023-07-13T03:16:17;10.25;;;2.28;;
69401;SDS011;56589;51.992;5.924;2023-07-13T03:18:43;8.57;;;2.38;;
69401;SDS011;56589;51.992;5.924;2023-07-13T03:21:13;10.52;;;2.90;;
69401;SDS011;56589;51.992;5.924;2023-07-13T03:23:41;6.53;;;2.38;;
69401;SDS011;56589;51.992;5.924;2023-07-13T03:26:07;8.05;;;2.20;;
69401;SDS011;56589;51.992;5.924;2023-07-13T03:28:35;9.55;;;2.30;;
69401;SDS011;56589;51.992;5.924;2023-07-13T03:31:04;9.60;;;2.40;;
69401;SDS011;56589;51.992;5.924;2023-07-13T03:33:33;7.45;;;1.80;;
69401;SDS011;56589;51.992;5.924;2023-07-13T03:36:00;7.35;;;2.17;;
69401;SDS011;56589;51.992;5.924;2023-07-13T03:38:30;12.02;;;2.50;;
69401;SDS011;56589;51.992;5.924;2023-07-13T03:40:57;8.32;;;2.60;;
69401;SDS011;56589;51.992;5.924;2023-07-13T03:43:23;5.65;;;2.47;;
69401;SDS011;56589;51.992;5.924;2023-07-13T03:45:50;10.75;;;2.95;;
69401;SDS011;56589;51.992;5.924;2023-07-13T03:48:16;9.23;;;3.22;;
69401;SDS011;56589;51.992;5.924;2023-07-13T03:50:42;11.85;;;2.60;;
69401;SDS011;56589;51.992;5.924;2023-07-13T03:53:08;9.55;;;3.58;;
69401;SDS011;56589;51.992;5.924;2023-07-13T03:55:37;8.35;;;2.53;;
69401;SDS011;56589;51.992;5.924;2023-07-13T04:00:53;14.30;;;3.38;;
69401;SDS011;56589;51.992;5.924;2023-07-13T04:03:20;10.38;;;2.63;;
69401;SDS011;56589;51.992;5.924;2023-07-13T04:05:47;10.75;;;2.50;;
69401;SDS011;56589;51.992;5.924;2023-07-13T04:08:13;7.10;;;2.75;;
69401;SDS011;56589;51.992;5.924;2023-07-13T04:10:42;10.48;;;2.63;;
69401;SDS011;56589;51.992;5.924;2023-07-13T04:13:10;9.57;;;2.80;;
69401;SDS011;56589;51.992;5.924;2023-07-13T04:15:36;8.52;;;2.88;;
69401;SDS011;56589;51.992;5.924;2023-07-13T04:18:03;10.73;;;2.47;;
69401;SDS011;56589;51.992;5.924;2023-07-13T04:20:29;16.52;;;3.22;;
69401;SDS011;56589;51.992;5.924;2023-07-13T04:22:56;10.32;;;2.92;;
69401;SDS011;56589;51.992;5.924;2023-07-13T04:25:22;8.75;;;2.70;;
69401;SDS011;56589;51.992;5.924;2023-07-13T04:27:50;9.88;;;2.97;;
69401;SDS011;56589;51.992;5.924;2023-07-13T04:30:17;8.82;;;2.90;;
69401;SDS011;56589;51.992;5.924;2023-07-13T04:32:43;13.38;;;4.05;;
69401;SDS011;56589;51.992;5.924;2023-07-13T04:35:09;11.82;;;3.00;;
69401;SDS011;56589;51.992;5.924;2023-07-13T04:37:36;8.00;;;2.83;;
69401;SDS011;56589;51.992;5.924;2023-07-13T04:40:02;9.40;;;2.85;;
69401;SDS011;56589;51.992;5.924;2023-07-13T04:42:29;13.52;;;2.72;;
69401;SDS011;56589;51.992;5.924;2023-07-13T04:44:57;9.45;;;3.05;;
69401;SDS011;56589;51.992;5.924;2023-07-13T04:47:23;11.23;;;2.83;;
69401;SDS011;56589;51.992;5.924;2023-07-13T04:49:49;10.32;;;2.70;;
69401;SDS011;56589;51.992;5.924;2023-07-13T04:52:16;10.13;;;2.80;;
69401;SDS011;56589;51.992;5.924;2023-07-13T04:54:42;6.28;;;2.90;;
69401;SDS011;56589;51.992;5.924;2023-07-13T04:57:08;5.82;;;2.50;;
69401;SDS011;56589;51.992;5.924;2023-07-13T04:59:34;10.82;;;3.17;;
69401;SDS011;56589;51.992;5.924;2023-07-13T05:02:03;10.00;;;3.20;;
69401;SDS011;56589;51.992;5.924;2023-07-13T05:04:30;9.75;;;2.58;;
69401;SDS011;56589;51.992;5.924;2023-07-13T05:06:55;10.02;;;3.30;;
69401;SDS011;56589;51.992;5.924;2023-07-13T05:09:21;8.35;;;3.38;;
69401;SDS011;56589;51.992;5.924;2023-07-13T05:11:47;9.25;;;3.45;;
69401;SDS011;56589;51.992;5.924;2023-07-13T05:14:15;11.82;;;3.42;;
69401;SDS011;56589;51.992;5.924;2023-07-13T05:16:41;11.85;;;3.35;;
69401;SDS011;56589;51.992;5.924;2023-07-13T05:19:09;12.40;;;3.70;;
69401;SDS011;56589;51.992;5.924;2023-07-13T05:21:36;11.35;;;3.50;;
69401;SDS011;56589;51.992;5.924;2023-07-13T05:24:03;12.05;;;3.45;;
69401;SDS011;56589;51.992;5.924;2023-07-13T05:26:29;10.35;;;3.20;;
69401;SDS011;56589;51.992;5.924;2023-07-13T05:28:55;10.00;;;4.05;;
69401;SDS011;56589;51.992;5.924;2023-07-13T05:31:21;12.77;;;3.72;;
69401;SDS011;56589;51.992;5.924;2023-07-13T05:33:47;11.13;;;3.85;;
69401;SDS011;56589;51.992;5.924;2023-07-13T05:36:16;13.90;;;3.67;;
69401;SDS011;56589;51.992;5.924;2023-07-13T05:38:41;13.50;;;3.67;;
69401;SDS011;56589;51.992;5.924;2023-07-13T05:41:07;8.60;;;3.55;;
69401;SDS011;56589;51.992;5.924;2023-07-13T05:43:34;11.90;;;4.10;;
69401;SDS011;56589;51.992;5.924;2023-07-13T05:46:00;14.98;;;4.00;;
69401;SDS011;56589;51.992;5.924;2023-07-13T05:48:26;12.45;;;3.92;;
69401;SDS011;56589;51.992;5.924;2023-07-13T05:50:52;17.70;;;5.65;;
69401;SDS011;56589;51.992;5.924;2023-07-13T05:53:20;15.95;;;5.00;;
69401;SDS011;56589;51.992;5.924;2023-07-13T05:55:47;12.30;;;4.90;;
69401;SDS011;56589;51.992;5.924;2023-07-13T05:58:13;11.45;;;4.50;;
69401;SDS011;56589;51.992;5.924;2023-07-13T06:00:39;17.83;;;4.93;;
69401;SDS011;56589;51.992;5.924;2023-07-13T06:03:06;16.48;;;5.43;;
69401;SDS011;56589;51.992;5.924;2023-07-13T06:05:32;14.75;;;6.00;;
69401;SDS011;56589;51.992;5.924;2023-07-13T06:07:59;17.55;;;6.32;;
69401;SDS011;56589;51.992;5.924;2023-07-13T06:10:28;16.55;;;6.30;;
69401;SDS011;56589;51.992;5.924;2023-07-13T06:12:54;15.73;;;5.85;;
69401;SDS011;56589;51.992;5.924;2023-07-13T06:15:20;18.08;;;6.18;;
69401;SDS011;56589;51.992;5.924;2023-07-13T06:17:46;16.27;;;6.90;;
69401;SDS011;56589;51.992;5.924;2023-07-13T06:20:12;20.27;;;7.18;;
69401;SDS011;56589;51.992;5.924;2023-07-13T06:22:38;19.42;;;6.57;;
69401;SDS011;56589;51.992;5.924;2023-07-13T06:25:05;17.58;;;7.07;;
69401;SDS011;56589;51.992;5.924;2023-07-13T06:27:35;15.55;;;6.28;;
69401;SDS011;56589;51.992;5.924;2023-07-13T06:30:01;14.98;;;7.28;;
69401;SDS011;56589;51.992;5.924;2023-07-13T06:32:27;17.45;;;7.38;;
69401;SDS011;56589;51.992;5.924;2023-07-13T06:34:53;20.20;;;7.43;;
69401;SDS011;56589;51.992;5.924;2023-07-13T06:37:19;20.25;;;7.43;;
69401;SDS011;56589;51.992;5.924;2023-07-13T06:39:45;14.82;;;7.13;;
69401;SDS011;56589;51.992;5.924;2023-07-13T06:42:11;17.10;;;7.60;;
69401;SDS011;56589;51.992;5.924;2023-07-13T06:44:40;19.08;;;8.35;;
69401;SDS011;56589;51.992;5.924;2023-07-13T06:47:06;17.05;;;7.05;;
69401;SDS011;56589;51.992;5.924;2023-07-13T06:49:32;19.77;;;7.07;;
69401;SDS011;56589;51.992;5.924;2023-07-13T06:51:58;16.70;;;7.40;;
69401;SDS011;56589;51.992;5.924;2023-07-13T06:54:24;19.42;;;7.32;;
69401;SDS011;56589;51.992;5.924;2023-07-13T06:56:50;23.65;;;7.38;;
69401;SDS011;56589;51.992;5.924;2023-07-13T06:59:16;17.77;;;8.20;;
69401;SDS011;56589;51.992;5.924;2023-07-13T07:01:44;21.88;;;8.85;;
69401;SDS011;56589;51.992;5.924;2023-07-13T07:04:10;23.33;;;8.23;;
69401;SDS011;56589;51.992;5.924;2023-07-13T07:06:36;17.55;;;8.65;;
69401;SDS011;56589;51.992;5.924;2023-07-13T07:09:02;14.57;;;7.95;;
69401;SDS011;56589;51.992;5.924;2023-07-13T07:11:29;20.60;;;8.95;;
69401;SDS011;56589;51.992;5.924;2023-07-13T07:13:55;21.92;;;8.70;;
69401;SDS011;56589;51.992;5.924;2023-07-13T07:16:21;20.63;;;8.50;;
69401;SDS011;56589;51.992;5.924;2023-07-13T07:18:52;16.50;;;8.50;;
69401;SDS011;56589;51.992;5.924;2023-07-13T07:21:18;19.65;;;9.52;;
69401;SDS011;56589;51.992;5.924;2023-07-13T07:23:44;16.80;;;8.30;;
69401;SDS011;56589;51.992;5.924;2023-07-13T07:26:11;19.17;;;8.20;;
69401;SDS011;56589;51.992;5.924;2023-07-13T07:28:37;18.05;;;7.53;;
69401;SDS011;56589;51.992;5.924;2023-07-13T07:31:03;21.38;;;7.88;;
69401;SDS011;56589;51.992;5.924;2023-07-13T07:33:29;20.98;;;7.78;;
69401;SDS011;56589;51.992;5.924;2023-07-13T07:35:57;17.65;;;8.27;;
69401;SDS011;56589;51.992;5.924;2023-07-13T07:38:23;20.55;;;8.93;;
69401;SDS011;56589;51.992;5.924;2023-07-13T07:40:49;17.98;;;8.90;;
69401;SDS011;56589;51.992;5.924;2023-07-13T07:43:16;21.10;;;8.65;;
69401;SDS011;56589;51.992;5.924;2023-07-13T07:45:44;19.58;;;9.13;;
69401;SDS011;56589;51.992;5.924;2023-07-13T07:48:10;20.20;;;8.90;;
69401;SDS011;56589;51.992;5.924;2023-07-13T07:50:37;22.83;;;8.48;;
69401;SDS011;56589;51.992;5.924;2023-07-13T07:53:06;18.15;;;7.82;;
69401;SDS011;56589;51.992;5.924;2023-07-13T07:55:32;17.73;;;8.60;;
69401;SDS011;56589;51.992;5.924;2023-07-13T07:57:59;16.52;;;7.95;;
69401;SDS011;56589;51.992;5.924;2023-07-13T08:00:26;16.02;;;7.68;;
69401;SDS011;56589;51.992;5.924;2023-07-13T08:02:52;19.80;;;7.93;;
69401;SDS011;56589;51.992;5.924;2023-07-13T08:05:18;21.00;;;8.15;;
69401;SDS011;56589;51.992;5.924;2023-07-13T08:07:44;15.35;;;7.35;;
69401;SDS011;56589;51.992;5.924;2023-07-13T08:10:13;18.10;;;7.97;;
69401;SDS011;56589;51.992;5.924;2023-07-13T08:12:39;12.57;;;7.57;;
69401;SDS011;56589;51.992;5.924;2023-07-13T08:15:06;16.40;;;7.88;;
69401;SDS011;56589;51.992;5.924;2023-07-13T08:17:37;20.95;;;8.25;;
69401;SDS011;56589;51.992;5.924;2023-07-13T08:20:04;13.30;;;7.50;;
69401;SDS011;56589;51.992;5.924;2023-07-13T08:22:31;17.05;;;7.78;;
69401;SDS011;56589;51.992;5.924;2023-07-13T08:24:58;14.93;;;6.47;;
69401;SDS011;56589;51.992;5.924;2023-07-13T08:27:28;10.73;;;6.20;;
69401;SDS011;56589;51.992;5.924;2023-07-13T08:29:54;14.43;;;7.03;;
69401;SDS011;56589;51.992;5.924;2023-07-13T08:32:21;14.90;;;6.72;;
69401;SDS011;56589;51.992;5.924;2023-07-13T08:34:48;12.65;;;6.82;;
69401;SDS011;56589;51.992;5.924;2023-07-13T08:37:15;14.38;;;6.68;;
69401;SDS011;56589;51.992;5.924;2023-07-13T08:39:42;9.80;;;4.78;;
69401;SDS011;56589;51.992;5.924;2023-07-13T08:42:11;10.35;;;5.03;;
69401;SDS011;56589;51.992;5.924;2023-07-13T08:45:04;11.45;;;5.40;;
69401;SDS011;56589;51.992;5.924;2023-07-13T08:47:44;10.35;;;5.50;;
69401;SDS011;56589;51.992;5.924;2023-07-13T08:50:17;13.43;;;5.40;;
69401;SDS011;56589;51.992;5.924;2023-07-13T08:52:49;12.82;;;5.20;;
69401;SDS011;56589;51.992;5.924;2023-07-13T08:55:16;14.20;;;5.78;;
69401;SDS011;56589;51.992;5.924;2023-07-13T08:57:53;13.57;;;5.78;;
69401;SDS011;56589;51.992;5.924;2023-07-13T09:00:40;12.10;;;5.85;;
69401;SDS011;56589;51.992;5.924;2023-07-13T09:03:19;16.38;;;6.60;;
69401;SDS011;56589;51.992;5.924;2023-07-13T09:05:50;14.57;;;5.75;;
69401;SDS011;56589;51.992;5.924;2023-07-13T09:08:33;13.25;;;5.65;;
69401;SDS011;56589;51.992;5.924;2023-07-13T09:11:23;8.98;;;4.75;;
69401;SDS011;56589;51.992;5.924;2023-07-13T09:14:19;10.50;;;4.40;;
69401;SDS011;56589;51.992;5.924;2023-07-13T09:17:11;7.90;;;4.18;;
69401;SDS011;56589;51.992;5.924;2023-07-13T09:19:43;11.50;;;4.55;;
69401;SDS011;56589;51.992;5.924;2023-07-13T09:22:19;9.15;;;4.25;;
69401;SDS011;56589;51.992;5.924;2023-07-13T09:24:51;14.13;;;4.57;;
69401;SDS011;56589;51.992;5.924;2023-07-13T09:27:27;9.43;;;4.22;;
69401;SDS011;56589;51.992;5.924;2023-07-13T09:30:10;7.07;;;3.72;;
69401;SDS011;56589;51.992;5.924;2023-07-13T09:32:50;10.90;;;4.20;;
69401;SDS011;56589;51.992;5.924;2023-07-13T09:35:19;10.02;;;3.83;;
69401;SDS011;56589;51.992;5.924;2023-07-13T09:37:49;8.85;;;4.10;;
69401;SDS011;56589;51.992;5.924;2023-07-13T09:40:20;10.48;;;4.63;;
69401;SDS011;56589;51.992;5.924;2023-07-13T09:42:53;15.45;;;4.80;;
69401;SDS011;56589;51.992;5.924;2023-07-13T09:45:29;9.45;;;3.50;;
69401;SDS011;56589;51.992;5.924;2023-07-13T09:47:59;5.78;;;2.08;;
69401;SDS011;56589;51.992;5.924;2023-07-13T09:50:30;5.20;;;1.58;;
69401;SDS011;56589;51.992;5.924;2023-07-13T09:52:56;3.75;;;1.80;;
69401;SDS011;56589;51.992;5.924;2023-07-13T09:55:23;7.15;;;2.53;;
69401;SDS011;56589;51.992;5.924;2023-07-13T09:57:52;6.75;;;2.67;;
69401;SDS011;56589;51.992;5.924;2023-07-13T10:00:21;7.57;;;2.83;;
69401;SDS011;56589;51.992;5.924;2023-07-13T10:03:00;7.53;;;3.15;;
69401;SDS011;56589;51.992;5.924;2023-07-13T10:05:39;7.10;;;2.95;;
69401;SDS011;56589;51.992;5.924;2023-07-13T10:08:16;9.77;;;3.35;;
69401;SDS011;56589;51.992;5.924;2023-07-13T10:10:45;5.95;;;3.00;;
69401;SDS011;56589;51.992;5.924;2023-07-13T10:13:24;10.32;;;3.70;;
69401;SDS011;56589;51.992;5.924;2023-07-13T10:15:55;12.50;;;3.75;;
69401;SDS011;56589;51.992;5.924;2023-07-13T10:18:27;5.53;;;2.60;;
69401;SDS011;56589;51.992;5.924;2023-07-13T10:20:59;5.85;;;3.10;;
69401;SDS011;56589;51.992;5.924;2023-07-13T10:23:37;8.15;;;2.80;;
69401;SDS011;56589;51.992;5.924;2023-07-13T10:26:04;8.95;;;2.80;;
69401;SDS011;56589;51.992;5.924;2023-07-13T10:28:42;9.52;;;2.88;;
69401;SDS011;56589;51.992;5.924;2023-07-13T10:31:13;7.55;;;2.63;;
69401;SDS011;56589;51.992;5.924;2023-07-13T10:33:43;6.43;;;2.45;;
69401;SDS011;56589;51.992;5.924;2023-07-13T10:36:12;8.15;;;2.95;;
69401;SDS011;56589;51.992;5.924;2023-07-13T10:38:46;8.63;;;2.60;;
69401;SDS011;56589;51.992;5.924;2023-07-13T10:41:17;7.30;;;2.45;;
69401;SDS011;56589;51.992;5.924;2023-07-13T10:43:49;5.90;;;2.10;;
69401;SDS011;56589;51.992;5.924;2023-07-13T10:46:18;6.55;;;2.65;;
69401;SDS011;56589;51.992;5.924;2023-07-13T10:48:53;5.65;;;2.30;;
69401;SDS011;56589;51.992;5.924;2023-07-13T10:51:24;6.50;;;2.53;;
69401;SDS011;56589;51.992;5.924;2023-07-13T10:56:45;9.82;;;3.10;;
69401;SDS011;56589;51.992;5.924;2023-07-13T10:59:12;8.88;;;3.97;;
69401;SDS011;56589;51.992;5.924;2023-07-13T11:01:49;10.20;;;4.00;;
69401;SDS011;56589;51.992;5.924;2023-07-13T11:04:24;6.07;;;2.97;;
69401;SDS011;56589;51.992;5.924;2023-07-13T11:06:56;7.40;;;2.65;;
69401;SDS011;56589;51.992;5.924;2023-07-13T11:09:36;6.43;;;2.58;;
69401;SDS011;56589;51.992;5.924;2023-07-13T11:12:07;5.88;;;2.45;;
69401;SDS011;56589;51.992;5.924;2023-07-13T11:15:04;9.10;;;2.72;;
69401;SDS011;56589;51.992;5.924;2023-07-13T11:17:37;7.82;;;3.00;;
69401;SDS011;56589;51.992;5.924;2023-07-13T11:25:53;6.78;;;2.65;;
69401;SDS011;56589;51.992;5.924;2023-07-13T11:28:21;5.13;;;1.90;;
69401;SDS011;56589;51.992;5.924;2023-07-13T11:30:59;5.88;;;1.92;;
69401;SDS011;56589;51.992;5.924;2023-07-13T11:33:49;6.15;;;1.75;;
69401;SDS011;56589;51.992;5.924;2023-07-13T11:36:29;6.47;;;2.05;;
69401;SDS011;56589;51.992;5.924;2023-07-13T11:39:02;3.38;;;1.50;;
69401;SDS011;56589;51.992;5.924;2023-07-13T11:41:43;4.13;;;1.50;;
69401;SDS011;56589;51.992;5.924;2023-07-13T11:44:17;4.45;;;1.70;;
69401;SDS011;56589;51.992;5.924;2023-07-13T11:46:47;4.28;;;1.42;;
69401;SDS011;56589;51.992;5.924;2023-07-13T11:49:15;3.38;;;1.40;;
69401;SDS011;56589;51.992;5.924;2023-07-13T11:51:45;4.60;;;1.35;;
69401;SDS011;56589;51.992;5.924;2023-07-13T11:54:19;3.65;;;1.60;;
69401;SDS011;56589;51.992;5.924;2023-07-13T11:56:54;4.35;;;1.25;;
69401;SDS011;56589;51.992;5.924;2023-07-13T11:59:22;5.95;;;1.70;;
69401;SDS011;56589;51.992;5.924;2023-07-13T12:01:49;2.95;;;1.60;;
69401;SDS011;56589;51.992;5.924;2023-07-13T12:04:20;4.32;;;1.73;;
69401;SDS011;56589;51.992;5.924;2023-07-13T12:07:04;4.25;;;1.55;;
69401;SDS011;56589;51.992;5.924;2023-07-13T12:09:33;3.38;;;1.42;;
69401;SDS011;56589;51.992;5.924;2023-07-13T12:12:00;3.38;;;1.42;;
69401;SDS011;56589;51.992;5.924;2023-07-13T12:14:26;5.88;;;1.83;;
69401;SDS011;56589;51.992;5.924;2023-07-13T12:16:52;8.05;;;2.22;;
69401;SDS011;56589;51.992;5.924;2023-07-13T12:19:21;4.53;;;2.00;;
69401;SDS011;56589;51.992;5.924;2023-07-13T12:21:53;4.03;;;1.85;;
69401;SDS011;56589;51.992;5.924;2023-07-13T12:24:24;5.85;;;2.28;;
69401;SDS011;56589;51.992;5.924;2023-07-13T12:26:53;3.88;;;1.80;;
69401;SDS011;56589;51.992;5.924;2023-07-13T12:29:24;5.38;;;1.80;;
69401;SDS011;56589;51.992;5.924;2023-07-13T12:31:50;4.13;;;1.70;;
69401;SDS011;56589;51.992;5.924;2023-07-13T12:34:17;4.63;;;1.75;;
69401;SDS011;56589;51.992;5.924;2023-07-13T12:36:46;5.88;;;2.10;;
69401;SDS011;56589;51.992;5.924;2023-07-13T12:39:19;6.00;;;2.20;;
69401;SDS011;56589;51.992;5.924;2023-07-13T12:41:51;7.07;;;2.72;;
69401;SDS011;56589;51.992;5.924;2023-07-13T12:44:20;3.30;;;1.42;;
69401;SDS011;56589;51.992;5.924;2023-07-13T12:46:54;3.22;;;2.15;;
69401;SDS011;56589;51.992;5.924;2023-07-13T12:49:26;6.15;;;1.77;;
69401;SDS011;56589;51.992;5.924;2023-07-13T12:51:56;4.68;;;2.15;;
69401;SDS011;56589;51.992;5.924;2023-07-13T12:54:27;5.18;;;1.65;;
69401;SDS011;56589;51.992;5.924;2023-07-13T12:56:55;5.43;;;1.80;;
69401;SDS011;56589;51.992;5.924;2023-07-13T12:59:25;4.15;;;1.77;;
69401;SDS011;56589;51.992;5.924;2023-07-13T13:01:57;5.07;;;1.50;;
69401;SDS011;56589;51.992;5.924;2023-07-13T13:04:24;4.03;;;1.90;;
69401;SDS011;56589;51.992;5.924;2023-07-13T13:07:00;5.03;;;1.80;;
69401;SDS011;56589;51.992;5.924;2023-07-13T13:09:30;5.32;;;1.90;;
69401;SDS011;56589;51.992;5.924;2023-07-13T13:11:56;3.03;;;1.80;;
69401;SDS011;56589;51.992;5.924;2023-07-13T13:14:23;4.03;;;1.65;;
69401;SDS011;56589;51.992;5.924;2023-07-13T13:16:50;3.88;;;1.33;;
69401;SDS011;56589;51.992;5.924;2023-07-13T13:19:18;3.40;;;1.60;;
69401;SDS011;56589;51.992;5.924;2023-07-13T13:21:48;8.52;;;2.05;;
69401;SDS011;56589;51.992;5.924;2023-07-13T13:24:16;4.22;;;1.75;;
69401;SDS011;56589;51.992;5.924;2023-07-13T13:26:46;3.67;;;1.55;;
69401;SDS011;56589;51.992;5.924;2023-07-13T13:29:15;5.68;;;1.90;;
69401;SDS011;56589;51.992;5.924;2023-07-13T13:31:43;7.90;;;1.67;;
69401;SDS011;56589;51.992;5.924;2023-07-13T13:34:10;5.45;;;1.88;;
69401;SDS011;56589;51.992;5.924;2023-07-13T13:36:39;6.30;;;1.95;;
69401;SDS011;56589;51.992;5.924;2023-07-13T13:42:00;5.03;;;2.17;;
69401;SDS011;56589;51.992;5.924;2023-07-13T13:44:27;4.05;;;1.75;;
69401;SDS011;56589;51.992;5.924;2023-07-13T13:46:54;8.60;;;1.98;;
69401;SDS011;56589;51.992;5.924;2023-07-13T13:49:22;5.70;;;2.00;;
69401;SDS011;56589;51.992;5.924;2023-07-13T13:51:51;3.88;;;1.88;;
69401;SDS011;56589;51.992;5.924;2023-07-13T13:54:19;5.63;;;2.13;;
69401;SDS011;56589;51.992;5.924;2023-07-13T13:56:48;4.80;;;1.70;;
69401;SDS011;56589;51.992;5.924;2023-07-13T13:59:19;3.20;;;1.50;;
69401;SDS011;56589;51.992;5.924;2023-07-13T14:01:46;2.53;;;1.70;;
69401;SDS011;56589;51.992;5.924;2023-07-13T14:04:14;4.80;;;1.85;;
69401;SDS011;56589;51.992;5.924;2023-07-13T14:06:44;3.22;;;1.30;;
69401;SDS011;56589;51.992;5.924;2023-07-13T14:09:12;4.38;;;1.30;;
69401;SDS011;56589;51.992;5.924;2023-07-13T14:11:44;3.30;;;1.15;;
69401;SDS011;56589;51.992;5.924;2023-07-13T14:14:14;4.95;;;2.25;;
69401;SDS011;56589;51.992;5.924;2023-07-13T14:16:47;2.67;;;1.20;;
69401;SDS011;56589;51.992;5.924;2023-07-13T14:19:15;2.30;;;1.23;;
69401;SDS011;56589;51.992;5.924;2023-07-13T14:21:41;3.05;;;1.42;;
69401;SDS011;56589;51.992;5.924;2023-07-13T14:24:07;3.72;;;1.77;;
69401;SDS011;56589;51.992;5.924;2023-07-13T14:26:35;4.30;;;1.95;;
69401;SDS011;56589;51.992;5.924;2023-07-13T14:29:10;4.50;;;1.30;;
69401;SDS011;56589;51.992;5.924;2023-07-13T14:31:43;6.43;;;2.22;;
69401;SDS011;56589;51.992;5.924;2023-07-13T14:34:10;5.13;;;1.73;;
69401;SDS011;56589;51.992;5.924;2023-07-13T14:36:37;2.90;;;1.60;;
69401;SDS011;56589;51.992;5.924;2023-07-13T14:39:10;6.32;;;1.80;;
69401;SDS011;56589;51.992;5.924;2023-07-13T14:41:42;3.13;;;1.33;;
69401;SDS011;56589;51.992;5.924;2023-07-13T14:44:10;3.70;;;1.60;;
69401;SDS011;56589;51.992;5.924;2023-07-13T14:46:38;4.72;;;1.58;;
69401;SDS011;56589;51.992;5.924;2023-07-13T14:49:09;3.80;;;1.42;;
69401;SDS011;56589;51.992;5.924;2023-07-13T14:51:46;3.35;;;1.55;;
69401;SDS011;56589;51.992;5.924;2023-07-13T14:54:12;3.22;;;1.33;;
69401;SDS011;56589;51.992;5.924;2023-07-13T14:56:38;4.32;;;1.60;;
69401;SDS011;56589;51.992;5.924;2023-07-13T14:59:05;4.03;;;1.50;;
69401;SDS011;56589;51.992;5.924;2023-07-13T15:01:31;4.13;;;1.60;;
69401;SDS011;56589;51.992;5.924;2023-07-13T15:03:57;3.70;;;1.20;;
69401;SDS011;56589;51.992;5.924;2023-07-13T15:06:26;4.60;;;1.65;;
69401;SDS011;56589;51.992;5.924;2023-07-13T15:08:52;4.63;;;1.38;;